createdAt,value
2019-03-30T00:00:57.980Z,59.50
2019-03-30T00:01:57.962Z,59.00
2019-03-30T00:02:57.971Z,59.00
2019-03-30T00:03:57.960Z,60.20
2019-03-30T00:04:57.994Z,61.10
2019-03-30T00:05:57.952Z,58.90
2019-03-30T00:06:57.939Z,59.90
2019-03-30T00:07:57.891Z,59.90
2019-03-30T00:08:57.914Z,59.50
2019-03-30T00:09:57.903Z,61.30
2019-03-30T00:10:57.863Z,61.10
2019-03-30T00:11:58.081Z,59.90
2019-03-30T00:12:57.872Z,61.80
2019-03-30T00:13:57.832Z,61.30
2019-03-30T00:14:57.842Z,60.40
2019-03-30T00:15:57.827Z,60.20
2019-03-30T00:16:57.795Z,58.90
2019-03-30T00:17:57.777Z,60.60
2019-03-30T00:18:57.767Z,60.20
2019-03-30T00:19:57.768Z,61.40
2019-03-30T00:20:57.786Z,60.60
2019-03-30T00:21:57.779Z,61.10
2019-03-30T00:22:57.744Z,62.20
2019-03-30T00:23:57.711Z,61.50
2019-03-30T00:24:57.706Z,62.20
2019-03-30T00:25:57.699Z,62.40
2019-03-30T00:26:57.711Z,61.70
2019-03-30T00:27:57.685Z,63.80
2019-03-30T00:28:57.671Z,67.00
2019-03-30T00:29:57.648Z,66.00
2019-03-30T00:30:57.638Z,64.60
2019-03-30T00:31:57.635Z,62.40
2019-03-30T00:32:57.647Z,63.70
2019-03-30T00:33:57.607Z,62.50
2019-03-30T00:34:57.599Z,61.90
2019-03-30T00:35:57.580Z,61.90
2019-03-30T00:36:57.577Z,63.60
2019-03-30T00:37:57.592Z,63.90
2019-03-30T00:38:57.664Z,64.00
2019-03-30T00:39:57.545Z,64.90
2019-03-30T00:40:57.524Z,63.50
2019-03-30T00:41:57.531Z,64.00
2019-03-30T00:42:57.509Z,64.60
2019-03-30T00:43:57.496Z,64.20
2019-03-30T00:44:57.497Z,63.90
2019-03-30T00:45:57.472Z,63.10
2019-03-30T00:46:57.481Z,64.40
2019-03-30T00:47:57.476Z,63.80
2019-03-30T00:48:57.438Z,65.00
2019-03-30T00:49:57.473Z,65.20
2019-03-30T00:50:57.428Z,64.80
2019-03-30T00:51:57.408Z,64.40
2019-03-30T00:52:57.406Z,65.60
2019-03-30T00:53:57.420Z,68.00
2019-03-30T00:54:57.375Z,67.40
2019-03-30T00:55:57.407Z,67.10
2019-03-30T00:56:57.355Z,66.90
2019-03-30T00:57:57.350Z,67.10
2019-03-30T00:58:57.343Z,70.40
2019-03-30T00:59:57.358Z,69.30
2019-03-30T01:00:57.320Z,69.70
2019-03-30T01:01:57.348Z,66.60
2019-03-30T01:02:57.303Z,69.80
2019-03-30T01:03:57.341Z,69.40
2019-03-30T01:04:57.278Z,68.60
2019-03-30T01:05:58.348Z,65.20
2019-03-30T01:06:57.259Z,67.00
2019-03-30T01:07:57.278Z,66.40
2019-03-30T01:08:57.222Z,66.10
2019-03-30T01:09:57.212Z,65.40
2019-03-30T01:10:57.200Z,66.50
2019-03-30T01:11:57.192Z,66.40
2019-03-30T01:12:57.204Z,65.70
2019-03-30T01:13:57.201Z,66.00
2019-03-30T01:14:57.167Z,66.10
2019-03-30T01:15:57.144Z,66.20
2019-03-30T01:16:57.137Z,66.10
2019-03-30T01:17:57.170Z,65.60
2019-03-30T01:18:57.130Z,64.50
2019-03-30T01:20:03.076Z,64.90
2019-03-30T01:20:58.091Z,65.00
2019-03-30T01:21:57.078Z,63.50
2019-03-30T01:22:57.061Z,65.30
2019-03-30T01:23:57.068Z,66.30
2019-03-30T01:24:57.094Z,65.00
2019-03-30T01:25:57.033Z,64.40
2019-03-30T01:26:57.050Z,65.60
2019-03-30T01:27:57.008Z,65.50
2019-03-30T01:28:56.999Z,64.60
2019-03-30T01:29:57.114Z,64.40
2019-03-30T01:30:57.019Z,66.60
2019-03-30T01:31:56.967Z,63.20
2019-03-30T01:32:56.967Z,64.90
2019-03-30T01:33:56.954Z,65.90
2019-03-30T01:34:56.940Z,65.20
2019-03-30T01:35:56.942Z,67.40
2019-03-30T01:36:56.949Z,65.80
2019-03-30T01:37:56.904Z,66.20
2019-03-30T01:38:56.907Z,64.30
2019-03-30T01:39:56.904Z,65.00
2019-03-30T01:40:56.927Z,64.60
2019-03-30T01:41:56.923Z,66.10
2019-03-30T01:42:56.889Z,64.30
2019-03-30T01:43:56.831Z,67.20
2019-03-30T01:44:56.831Z,65.50
2019-03-30T01:45:56.813Z,67.20
2019-03-30T01:46:56.822Z,66.40
2019-03-30T01:47:56.814Z,67.60
2019-03-30T01:48:56.799Z,64.90
2019-03-30T01:49:56.763Z,65.40
2019-03-30T01:50:56.778Z,64.50
2019-03-30T01:51:56.742Z,63.80
2019-03-30T01:52:56.736Z,65.40
2019-03-30T01:53:56.747Z,65.00
2019-03-30T01:54:56.710Z,65.80
2019-03-30T01:55:56.695Z,65.90
2019-03-30T01:56:56.688Z,65.00
2019-03-30T01:57:56.671Z,64.50
2019-03-30T01:58:56.662Z,65.80
2019-03-30T01:59:56.727Z,64.60
2019-03-30T02:00:56.649Z,67.00
2019-03-30T02:01:56.637Z,66.70
2019-03-30T02:02:56.624Z,66.30
2019-03-30T02:03:56.613Z,66.10
2019-03-30T02:04:56.603Z,66.50
2019-03-30T02:05:56.627Z,64.00
2019-03-30T02:06:56.575Z,63.20
2019-03-30T02:07:56.563Z,65.60
2019-03-30T02:08:56.570Z,64.60
2019-03-30T02:09:56.559Z,64.60
2019-03-30T02:10:56.554Z,65.20
2019-03-30T02:11:56.558Z,64.80
2019-03-30T02:12:56.528Z,64.40
2019-03-30T02:13:56.504Z,63.60
2019-03-30T02:14:56.496Z,66.20
2019-03-30T02:15:56.487Z,67.20
2019-03-30T02:16:56.479Z,65.80
2019-03-30T02:17:56.494Z,65.60
2019-03-30T02:18:56.467Z,65.10
2019-03-30T02:19:56.432Z,65.10
2019-03-30T02:20:56.426Z,65.30
2019-03-30T02:21:56.413Z,66.00
2019-03-30T02:22:56.405Z,67.60
2019-03-30T02:23:56.446Z,65.90
2019-03-30T02:24:56.385Z,65.40
2019-03-30T02:25:56.485Z,63.80
2019-03-30T02:26:56.355Z,64.00
2019-03-30T02:27:56.419Z,65.70
2019-03-30T02:28:56.338Z,67.10
2019-03-30T02:29:56.342Z,66.50
2019-03-30T02:30:56.319Z,65.00
2019-03-30T02:31:56.345Z,66.60
2019-03-30T02:32:56.336Z,66.60
2019-03-30T02:33:56.275Z,64.80
2019-03-30T02:34:56.288Z,65.90
2019-03-30T02:35:56.290Z,64.20
2019-03-30T02:36:56.243Z,66.00
2019-03-30T02:37:56.234Z,68.10
2019-03-30T02:38:56.227Z,65.60
2019-03-30T02:39:56.224Z,63.70
2019-03-30T02:40:56.201Z,65.60
2019-03-30T02:41:56.238Z,65.40
2019-03-30T02:42:56.200Z,65.50
2019-03-30T02:43:56.171Z,66.70
2019-03-30T02:44:56.162Z,64.40
2019-03-30T02:45:56.157Z,64.60
2019-03-30T02:46:56.147Z,66.60
2019-03-30T02:47:56.167Z,65.90
2019-03-30T02:48:56.139Z,67.20
2019-03-30T02:49:56.108Z,66.60
2019-03-30T02:50:56.095Z,65.70
2019-03-30T02:51:56.088Z,65.80
2019-03-30T02:52:56.107Z,65.70
2019-03-30T02:53:56.069Z,66.20
2019-03-30T02:54:56.051Z,66.90
2019-03-30T02:55:56.069Z,66.40
2019-03-30T02:56:56.038Z,64.70
2019-03-30T02:57:56.031Z,65.00
2019-03-30T02:58:56.054Z,67.20
2019-03-30T02:59:56.021Z,64.30
2019-03-30T03:00:55.988Z,65.70
2019-03-30T03:01:55.990Z,65.50
2019-03-30T03:02:55.985Z,64.40
2019-03-30T03:03:55.961Z,66.50
2019-03-30T03:04:56.003Z,65.50
2019-03-30T03:05:55.943Z,64.20
2019-03-30T03:06:55.952Z,66.40
2019-03-30T03:07:55.967Z,64.00
2019-03-30T03:08:55.942Z,68.30
2019-03-30T03:09:55.888Z,66.50
2019-03-30T03:10:55.903Z,67.20
2019-03-30T03:11:55.899Z,65.50
2019-03-30T03:12:55.853Z,65.60
2019-03-30T03:13:55.860Z,66.10
2019-03-30T03:14:55.887Z,64.80
2019-03-30T03:15:55.849Z,65.20
2019-03-30T03:16:55.847Z,66.30
2019-03-30T03:17:55.815Z,65.10
2019-03-30T03:18:55.813Z,63.10
2019-03-30T03:19:55.791Z,67.10
2019-03-30T03:21:07.451Z,64.70
2019-03-30T03:21:56.767Z,68.00
2019-03-30T03:22:55.754Z,66.00
2019-03-30T03:23:55.748Z,66.10
2019-03-30T03:24:55.731Z,64.70
2019-03-30T03:25:55.723Z,65.90
2019-03-30T03:26:55.784Z,64.70
2019-03-30T03:27:55.736Z,66.20
2019-03-30T03:28:55.721Z,66.40
2019-03-30T03:29:55.674Z,66.00
2019-03-30T03:30:55.702Z,67.30
2019-03-30T03:31:55.717Z,67.30
2019-03-30T03:32:55.670Z,66.10
2019-03-30T03:33:55.650Z,66.00
2019-03-30T03:34:55.668Z,65.20
2019-03-30T03:35:55.615Z,67.50
2019-03-30T03:36:55.619Z,65.60
2019-03-30T03:37:55.656Z,65.90
2019-03-30T03:38:55.638Z,65.40
2019-03-30T03:39:55.601Z,65.80
2019-03-30T03:40:55.585Z,67.40
2019-03-30T03:41:55.559Z,66.90
2019-03-30T03:42:55.556Z,65.60
2019-03-30T03:43:55.572Z,67.40
2019-03-30T03:44:55.537Z,67.20
2019-03-30T03:45:55.561Z,69.00
2019-03-30T03:46:55.514Z,66.90
2019-03-30T03:47:55.496Z,66.60
2019-03-30T03:48:55.477Z,66.80
2019-03-30T03:49:55.506Z,64.80
2019-03-30T03:50:55.498Z,67.30
2019-03-30T03:51:55.457Z,66.40
2019-03-30T03:52:55.432Z,66.70
2019-03-30T03:53:55.416Z,66.00
2019-03-30T03:54:55.429Z,65.90
2019-03-30T03:55:55.409Z,65.50
2019-03-30T03:56:55.404Z,65.50
2019-03-30T03:57:55.396Z,65.40
2019-03-30T03:58:55.364Z,64.20
2019-03-30T03:59:55.357Z,66.20
2019-03-30T04:00:55.388Z,64.40
2019-03-30T04:01:55.350Z,66.20
2019-03-30T04:02:55.393Z,66.90
2019-03-30T04:03:55.332Z,67.00
2019-03-30T04:04:55.325Z,64.80
2019-03-30T04:05:55.321Z,66.90
2019-03-30T04:06:55.601Z,65.20
2019-03-30T04:07:55.337Z,62.80
2019-03-30T04:08:55.260Z,63.80
2019-03-30T04:09:55.239Z,62.00
2019-03-30T04:10:55.232Z,63.50
2019-03-30T04:11:55.224Z,65.00
2019-03-30T04:12:55.238Z,63.20
2019-03-30T04:13:55.239Z,63.20
2019-03-30T04:14:55.197Z,63.40
2019-03-30T04:15:55.238Z,63.00
2019-03-30T04:16:55.168Z,63.40
2019-03-30T04:17:55.180Z,61.40
2019-03-30T04:18:55.172Z,61.70
2019-03-30T04:19:55.149Z,60.20
2019-03-30T04:20:55.147Z,62.80
2019-03-30T04:21:55.123Z,60.60
2019-03-30T04:22:55.108Z,62.60
2019-03-30T04:23:55.146Z,62.50
2019-03-30T04:24:55.103Z,60.40
2019-03-30T04:25:55.082Z,62.50
2019-03-30T04:26:55.115Z,60.50
2019-03-30T04:27:55.052Z,59.50
2019-03-30T04:28:55.085Z,59.80
2019-03-30T04:29:55.095Z,58.70
2019-03-30T04:30:55.020Z,59.20
2019-03-30T04:31:55.037Z,60.00
2019-03-30T04:32:55.051Z,59.90
2019-03-30T04:33:55.051Z,60.10
2019-03-30T04:34:54.997Z,59.40
2019-03-30T04:35:57.785Z,58.40
2019-03-30T04:36:54.952Z,59.10
2019-03-30T04:37:54.983Z,59.40
2019-03-30T04:38:55.004Z,57.90
2019-03-30T04:39:54.917Z,57.20
2019-03-30T04:40:54.920Z,57.30
2019-03-30T04:41:54.928Z,58.70
2019-03-30T04:42:54.889Z,55.30
2019-03-30T04:43:54.890Z,56.50
2019-03-30T04:44:54.913Z,54.80
2019-03-30T04:45:54.861Z,56.90
2019-03-30T04:46:54.846Z,56.70
2019-03-30T04:47:54.855Z,55.50
2019-03-30T04:48:54.854Z,55.40
2019-03-30T04:49:54.818Z,55.90
2019-03-30T04:50:54.805Z,55.20
2019-03-30T04:51:57.756Z,54.70
2019-03-30T04:52:54.796Z,54.60
2019-03-30T04:53:54.786Z,55.10
2019-03-30T04:54:54.811Z,54.90
2019-03-30T04:55:54.754Z,55.10
2019-03-30T04:56:54.737Z,52.70
2019-03-30T04:57:57.728Z,53.80
2019-03-30T04:58:54.730Z,53.10
2019-03-30T04:59:54.707Z,53.00
2019-03-30T05:00:54.692Z,51.40
2019-03-30T05:01:54.680Z,51.20
2019-03-30T05:02:54.708Z,49.40
2019-03-30T05:03:54.702Z,50.00
2019-03-30T05:04:54.669Z,49.90
2019-03-30T05:05:54.643Z,50.40
2019-03-30T05:06:54.634Z,49.80
2019-03-30T05:07:54.622Z,50.80
2019-03-30T05:08:54.632Z,50.40
2019-03-30T05:09:54.600Z,49.30
2019-03-30T05:10:54.587Z,50.50
2019-03-30T05:11:54.596Z,51.20
2019-03-30T05:12:54.576Z,50.90
2019-03-30T05:13:54.575Z,51.20
2019-03-30T05:14:54.580Z,50.90
2019-03-30T05:15:54.566Z,49.90
2019-03-30T05:16:54.604Z,49.80
2019-03-30T05:17:54.511Z,50.20
2019-03-30T05:18:54.506Z,51.20
2019-03-30T05:19:54.499Z,50.80
2019-03-30T05:20:54.508Z,51.60
2019-03-30T05:21:54.477Z,53.00
2019-03-30T05:22:54.459Z,51.60
2019-03-30T05:23:54.485Z,52.00
2019-03-30T05:24:54.440Z,51.70
2019-03-30T05:25:54.426Z,51.60
2019-03-30T05:26:54.468Z,52.00
2019-03-30T05:27:54.414Z,52.00
2019-03-30T05:28:54.465Z,52.10
2019-03-30T05:29:54.467Z,52.20
2019-03-30T05:30:54.372Z,50.30
2019-03-30T05:31:54.383Z,51.00
2019-03-30T05:33:05.110Z,52.90
2019-03-30T05:33:55.351Z,54.00
2019-03-30T05:34:54.337Z,53.00
2019-03-30T05:35:54.357Z,52.00
2019-03-30T05:36:54.311Z,53.50
2019-03-30T05:37:54.321Z,52.70
2019-03-30T05:38:54.347Z,54.60
2019-03-30T05:39:54.294Z,53.40
2019-03-30T05:40:54.397Z,53.20
2019-03-30T05:41:54.276Z,51.80
2019-03-30T05:42:54.267Z,53.50
2019-03-30T05:43:54.252Z,52.80
2019-03-30T05:44:57.547Z,51.00
2019-03-30T05:45:54.227Z,48.60
2019-03-30T05:46:54.255Z,48.90
2019-03-30T05:47:54.233Z,50.20
2019-03-30T05:48:54.187Z,49.20
2019-03-30T05:49:54.203Z,47.70
2019-03-30T05:50:54.165Z,48.10
2019-03-30T05:51:54.217Z,45.80
2019-03-30T05:52:54.292Z,47.00
2019-03-30T05:53:54.123Z,48.00
2019-03-30T05:54:54.149Z,46.40
2019-03-30T05:55:54.145Z,45.80
2019-03-30T05:56:54.118Z,45.60
2019-03-30T05:57:54.083Z,43.20
2019-03-30T05:58:54.072Z,43.00
2019-03-30T05:59:55.838Z,43.40
2019-03-30T06:00:54.101Z,42.80
2019-03-30T06:01:54.049Z,42.00
2019-03-30T06:02:54.044Z,43.10
2019-03-30T06:03:54.066Z,41.10
2019-03-30T06:04:54.081Z,42.70
2019-03-30T06:05:54.025Z,38.70
2019-03-30T06:06:53.990Z,40.00
2019-03-30T06:07:53.985Z,39.80
2019-03-30T06:08:53.977Z,40.60
2019-03-30T06:09:53.987Z,40.40
2019-03-30T06:10:53.953Z,39.90
2019-03-30T06:11:53.966Z,40.20
2019-03-30T06:12:53.927Z,39.70
2019-03-30T06:13:53.918Z,40.20
2019-03-30T06:14:53.913Z,41.90
2019-03-30T06:15:53.917Z,41.90
2019-03-30T06:16:53.894Z,41.70
2019-03-30T06:17:53.904Z,42.70
2019-03-30T06:18:53.855Z,41.40
2019-03-30T06:19:53.859Z,39.50
2019-03-30T06:20:53.866Z,42.20
2019-03-30T06:21:53.870Z,41.80
2019-03-30T06:22:53.882Z,41.40
2019-03-30T06:23:53.831Z,40.70
2019-03-30T06:24:53.809Z,42.50
2019-03-30T06:25:53.799Z,41.70
2019-03-30T06:26:53.767Z,40.10
2019-03-30T06:27:53.802Z,41.30
2019-03-30T06:28:53.749Z,40.00
2019-03-30T06:29:53.777Z,40.20
2019-03-30T06:30:53.784Z,39.10
2019-03-30T06:31:53.741Z,40.50
2019-03-30T06:32:53.731Z,39.90
2019-03-30T06:33:53.785Z,39.90
2019-03-30T06:34:53.689Z,39.40
2019-03-30T06:35:53.690Z,39.10
2019-03-30T06:36:53.677Z,39.70
2019-03-30T06:37:53.683Z,39.80
2019-03-30T06:38:53.673Z,39.80
2019-03-30T06:39:53.659Z,40.90
2019-03-30T06:40:53.627Z,40.70
2019-03-30T06:41:53.612Z,40.50
2019-03-30T06:42:53.618Z,41.60
2019-03-30T06:43:53.625Z,39.80
2019-03-30T06:44:53.587Z,40.20
2019-03-30T06:45:53.599Z,40.10
2019-03-30T06:46:53.592Z,39.50
2019-03-30T06:47:53.561Z,39.00
2019-03-30T06:48:53.558Z,39.70
2019-03-30T06:49:53.546Z,38.40
2019-03-30T06:50:53.508Z,38.70
2019-03-30T06:51:53.612Z,38.80
2019-03-30T06:52:57.827Z,37.50
2019-03-30T06:53:54.540Z,38.10
2019-03-30T06:54:53.481Z,38.30
2019-03-30T06:55:53.469Z,37.40
2019-03-30T06:56:53.453Z,38.80
2019-03-30T06:57:53.478Z,37.10
2019-03-30T06:58:53.421Z,37.60
2019-03-30T06:59:53.419Z,36.60
2019-03-30T07:00:53.625Z,37.20
2019-03-30T07:01:53.646Z,37.10
2019-03-30T07:02:53.406Z,36.90
2019-03-30T07:03:53.373Z,36.50
2019-03-30T07:04:53.364Z,36.30
2019-03-30T07:05:53.351Z,35.70
2019-03-30T07:06:53.369Z,34.20
2019-03-30T07:07:53.355Z,36.40
2019-03-30T07:08:53.342Z,36.50
2019-03-30T07:09:53.321Z,35.90
2019-03-30T07:10:53.311Z,35.00
2019-03-30T07:11:53.317Z,35.60
2019-03-30T07:12:53.290Z,35.10
2019-03-30T07:13:53.288Z,35.30
2019-03-30T07:14:53.273Z,34.30
2019-03-30T07:15:53.244Z,35.70
2019-03-30T07:16:53.344Z,36.00
2019-03-30T07:17:53.242Z,35.00
2019-03-30T07:18:53.240Z,34.30
2019-03-30T07:19:53.235Z,35.10
2019-03-30T07:20:53.199Z,33.90
2019-03-30T07:21:53.193Z,34.70
2019-03-30T07:22:53.256Z,33.50
2019-03-30T07:23:53.229Z,34.40
2019-03-30T07:24:53.147Z,34.60
2019-03-30T07:25:53.174Z,34.40
2019-03-30T07:26:53.187Z,34.60
2019-03-30T07:27:53.123Z,34.00
2019-03-30T07:28:53.114Z,33.30
2019-03-30T07:29:53.103Z,33.60
2019-03-30T07:30:53.105Z,33.20
2019-03-30T07:31:53.096Z,33.50
2019-03-30T07:32:53.064Z,33.40
2019-03-30T07:33:53.053Z,33.80
2019-03-30T07:34:53.127Z,33.20
2019-03-30T07:35:53.029Z,31.90
2019-03-30T07:36:53.022Z,32.50
2019-03-30T07:37:53.045Z,31.30
2019-03-30T07:38:52.988Z,33.40
2019-03-30T07:39:52.976Z,32.90
2019-03-30T07:40:52.984Z,33.20
2019-03-30T07:41:53.004Z,30.90
2019-03-30T07:42:52.970Z,31.60
2019-03-30T07:43:52.960Z,32.00
2019-03-30T07:44:52.937Z,31.70
2019-03-30T07:45:52.918Z,31.60
2019-03-30T07:46:52.907Z,31.20
2019-03-30T07:47:52.942Z,31.90
2019-03-30T07:48:52.885Z,32.10
2019-03-30T07:49:52.873Z,33.50
2019-03-30T07:50:52.854Z,32.00
2019-03-30T07:51:52.885Z,31.60
2019-03-30T07:52:52.845Z,32.10
2019-03-30T07:53:52.850Z,31.80
2019-03-30T07:54:52.954Z,32.70
2019-03-30T07:55:52.802Z,31.70
2019-03-30T07:57:04.241Z,31.20
2019-03-30T07:57:53.847Z,31.90
2019-03-30T07:58:52.806Z,31.70
2019-03-30T07:59:52.814Z,32.20
2019-03-30T08:00:52.772Z,30.70
2019-03-30T08:01:52.740Z,33.40
2019-03-30T08:02:55.533Z,31.50
2019-03-30T08:03:52.718Z,32.20
2019-03-30T08:04:52.734Z,31.90
2019-03-30T08:05:54.342Z,31.80
2019-03-30T08:06:52.686Z,31.60
2019-03-30T08:07:52.766Z,32.10
2019-03-30T08:08:52.657Z,32.90
2019-03-30T08:09:52.704Z,31.70
2019-03-30T08:10:52.666Z,31.40
2019-03-30T08:11:52.639Z,32.30
2019-03-30T08:12:52.703Z,32.30
2019-03-30T08:13:52.608Z,31.50
2019-03-30T08:14:52.604Z,32.00
2019-03-30T08:15:52.600Z,31.70
2019-03-30T08:16:52.601Z,31.60
2019-03-30T08:17:52.636Z,31.40
2019-03-30T08:18:52.551Z,31.10
2019-03-30T08:19:52.535Z,31.00
2019-03-30T08:20:52.758Z,32.30
2019-03-30T08:21:52.586Z,31.60
2019-03-30T08:22:52.552Z,32.40
2019-03-30T08:23:52.490Z,32.00
2019-03-30T08:24:52.480Z,31.90
2019-03-30T08:25:52.468Z,31.90
2019-03-30T08:26:52.593Z,32.40
2019-03-30T08:27:52.463Z,30.90
2019-03-30T08:28:52.476Z,32.50
2019-03-30T08:29:52.434Z,31.50
2019-03-30T08:30:52.450Z,32.30
2019-03-30T08:31:52.409Z,32.90
2019-03-30T08:32:52.433Z,32.40
2019-03-30T08:33:52.395Z,32.50
2019-03-30T08:34:52.379Z,33.00
2019-03-30T08:35:52.372Z,32.70
2019-03-30T08:36:52.419Z,32.80
2019-03-30T08:37:52.432Z,34.10
2019-03-30T08:38:52.412Z,32.60
2019-03-30T08:39:52.363Z,33.60
2019-03-30T08:40:52.550Z,34.60
2019-03-30T08:41:53.094Z,34.10
2019-03-30T08:42:52.346Z,33.30
2019-03-30T08:43:52.280Z,33.70
2019-03-30T08:44:52.289Z,34.60
2019-03-30T08:45:52.260Z,34.50
2019-03-30T08:46:52.262Z,33.90
2019-03-30T08:47:52.239Z,33.40
2019-03-30T08:48:52.221Z,33.70
2019-03-30T08:49:52.234Z,33.80
2019-03-30T08:50:52.210Z,33.80
2019-03-30T08:51:52.447Z,33.60
2019-03-30T08:52:52.229Z,32.80
2019-03-30T08:53:54.822Z,32.50
2019-03-30T08:54:52.152Z,32.40
2019-03-30T08:55:52.164Z,32.50
2019-03-30T08:56:52.131Z,32.40
2019-03-30T08:57:52.341Z,31.40
2019-03-30T08:58:52.113Z,32.80
2019-03-30T08:59:52.165Z,31.40
2019-03-30T09:00:52.216Z,31.30
2019-03-30T09:01:52.104Z,31.60
2019-03-30T09:02:52.066Z,31.20
2019-03-30T09:03:52.166Z,31.60
2019-03-30T09:04:52.085Z,31.30
2019-03-30T09:05:52.048Z,30.10
2019-03-30T09:06:52.019Z,30.30
2019-03-30T09:07:52.032Z,30.90
2019-03-30T09:08:52.015Z,30.20
2019-03-30T09:09:52.087Z,30.00
2019-03-30T09:10:51.993Z,28.70
2019-03-30T09:11:51.972Z,29.90
2019-03-30T09:12:51.958Z,29.30
2019-03-30T09:13:51.993Z,28.90
2019-03-30T09:14:51.940Z,29.90
2019-03-30T09:15:52.023Z,28.10
2019-03-30T09:16:51.914Z,27.40
2019-03-30T09:17:51.920Z,27.40
2019-03-30T09:18:51.926Z,27.90
2019-03-30T09:19:51.884Z,26.30
2019-03-30T09:20:51.883Z,27.00
2019-03-30T09:21:51.867Z,26.70
2019-03-30T09:22:51.872Z,27.30
2019-03-30T09:23:51.848Z,27.30
2019-03-30T09:24:51.862Z,25.90
2019-03-30T09:25:51.820Z,25.70
2019-03-30T09:26:51.821Z,25.60
2019-03-30T09:27:51.976Z,26.10
2019-03-30T09:28:51.813Z,26.10
2019-03-30T09:29:51.770Z,24.40
2019-03-30T09:30:51.787Z,25.20
2019-03-30T09:31:51.771Z,25.20
2019-03-30T09:32:51.740Z,24.40
2019-03-30T09:33:51.766Z,25.90
2019-03-30T09:34:51.714Z,24.60
2019-03-30T09:35:51.741Z,24.90
2019-03-30T09:36:51.785Z,25.50
2019-03-30T09:37:51.689Z,24.50
2019-03-30T09:38:51.715Z,24.50
2019-03-30T09:39:51.676Z,24.00
2019-03-30T09:40:51.650Z,24.80
2019-03-30T09:41:51.684Z,24.40
2019-03-30T09:42:51.643Z,24.40
2019-03-30T09:43:51.635Z,24.10
2019-03-30T09:44:51.612Z,23.90
2019-03-30T09:45:51.616Z,24.60
2019-03-30T09:46:51.588Z,24.70
2019-03-30T09:47:51.600Z,24.40
2019-03-30T09:48:51.583Z,24.80
2019-03-30T09:49:51.593Z,24.10
2019-03-30T09:50:51.546Z,23.90
2019-03-30T09:51:51.543Z,23.50
2019-03-30T09:52:51.559Z,24.00
2019-03-30T09:53:51.541Z,23.50
2019-03-30T09:54:51.516Z,23.10
2019-03-30T09:55:51.507Z,23.30
2019-03-30T09:56:51.525Z,23.30
2019-03-30T09:57:51.473Z,22.30
2019-03-30T09:58:51.477Z,23.80
2019-03-30T09:59:51.519Z,23.20
2019-03-30T10:00:51.449Z,22.50
2019-03-30T10:01:51.438Z,22.80
2019-03-30T10:02:51.418Z,23.10
2019-03-30T10:03:51.405Z,22.40
2019-03-30T10:04:51.413Z,22.50
2019-03-30T10:05:51.404Z,22.20
2019-03-30T10:06:51.392Z,21.40
2019-03-30T10:07:51.364Z,22.00
2019-03-30T10:08:51.354Z,22.20
2019-03-30T10:09:51.341Z,22.20
2019-03-30T10:10:51.327Z,22.20
2019-03-30T10:11:51.357Z,22.40
2019-03-30T10:12:51.335Z,23.10
2019-03-30T10:13:51.310Z,22.20
2019-03-30T10:14:51.281Z,22.60
2019-03-30T10:15:51.297Z,22.50
2019-03-30T10:16:51.333Z,23.20
2019-03-30T10:17:51.274Z,22.50
2019-03-30T10:18:51.241Z,22.90
2019-03-30T10:20:03.633Z,22.20
2019-03-30T10:20:52.226Z,22.10
2019-03-30T10:21:51.212Z,22.80
2019-03-30T10:22:51.221Z,22.10
2019-03-30T10:23:51.230Z,23.10
2019-03-30T10:24:51.199Z,22.90
2019-03-30T10:25:51.224Z,22.80
2019-03-30T10:26:51.163Z,22.90
2019-03-30T10:27:51.146Z,23.10
2019-03-30T10:28:51.153Z,23.00
2019-03-30T10:29:51.150Z,23.20
2019-03-30T10:30:51.109Z,23.70
2019-03-30T10:31:51.096Z,24.10
2019-03-30T10:32:51.090Z,23.00
2019-03-30T10:33:51.085Z,23.50
2019-03-30T10:34:51.063Z,23.70
2019-03-30T10:35:51.089Z,24.10
2019-03-30T10:36:51.058Z,22.80
2019-03-30T10:37:51.036Z,22.90
2019-03-30T10:38:51.059Z,23.80
2019-03-30T10:39:51.016Z,23.70
2019-03-30T10:40:51.030Z,24.20
2019-03-30T10:41:51.010Z,23.20
2019-03-30T10:42:50.982Z,23.20
2019-03-30T10:43:50.975Z,24.20
2019-03-30T10:44:50.960Z,24.10
2019-03-30T10:45:50.970Z,24.90
2019-03-30T10:46:50.944Z,24.40
2019-03-30T10:47:50.945Z,23.90
2019-03-30T10:48:50.914Z,23.50
2019-03-30T10:49:50.912Z,23.50
2019-03-30T10:50:50.896Z,23.40
2019-03-30T10:51:54.194Z,23.20
2019-03-30T10:52:50.915Z,24.10
2019-03-30T10:53:50.866Z,24.00
2019-03-30T10:54:52.919Z,23.60
2019-03-30T10:55:50.857Z,24.60
2019-03-30T10:56:50.851Z,25.00
2019-03-30T10:57:50.837Z,25.50
2019-03-30T10:58:50.840Z,26.40
2019-03-30T10:59:50.802Z,24.70
2019-03-30T11:00:50.799Z,25.00
2019-03-30T11:01:51.566Z,25.20
2019-03-30T11:02:50.765Z,25.00
2019-03-30T11:03:51.093Z,24.60
2019-03-30T11:04:50.743Z,25.50
2019-03-30T11:05:50.725Z,25.30
2019-03-30T11:06:50.726Z,25.20
2019-03-30T11:07:50.713Z,25.30
2019-03-30T11:08:50.700Z,24.80
2019-03-30T11:09:50.750Z,25.50
2019-03-30T11:10:50.673Z,25.30
2019-03-30T11:11:50.672Z,25.50
2019-03-30T11:12:50.668Z,25.80
2019-03-30T11:13:50.658Z,25.80
2019-03-30T11:14:50.635Z,25.90
2019-03-30T11:15:50.684Z,25.80
2019-03-30T11:16:50.637Z,25.90
2019-03-30T11:17:50.614Z,25.30
2019-03-30T11:18:50.584Z,25.60
2019-03-30T11:19:50.598Z,25.90
2019-03-30T11:20:50.574Z,26.40
2019-03-30T11:21:50.610Z,26.00
2019-03-30T11:22:50.558Z,25.30
2019-03-30T11:23:50.580Z,25.10
2019-03-30T11:24:50.526Z,26.50
2019-03-30T11:25:50.708Z,24.00
2019-03-30T11:26:50.506Z,26.00
2019-03-30T11:27:50.508Z,25.60
2019-03-30T11:28:50.497Z,26.30
2019-03-30T11:29:50.501Z,26.80
2019-03-30T11:30:50.476Z,25.20
2019-03-30T11:31:50.499Z,26.10
2019-03-30T11:32:50.446Z,27.10
2019-03-30T11:33:50.434Z,26.10
2019-03-30T11:34:50.412Z,25.90
2019-03-30T11:35:50.431Z,25.10
2019-03-30T11:36:50.470Z,25.50
2019-03-30T11:37:50.461Z,25.60
2019-03-30T11:38:50.372Z,23.40
2019-03-30T11:39:50.452Z,25.30
2019-03-30T11:40:50.390Z,24.10
2019-03-30T11:41:50.334Z,24.10
2019-03-30T11:42:50.331Z,25.50
2019-03-30T11:43:50.382Z,24.30
2019-03-30T11:44:50.313Z,24.00
2019-03-30T11:45:50.294Z,24.80
2019-03-30T11:46:50.316Z,22.70
2019-03-30T11:47:50.274Z,24.00
2019-03-30T11:48:50.272Z,23.00
2019-03-30T11:49:50.344Z,23.50
2019-03-30T11:50:50.249Z,23.00
2019-03-30T11:51:50.231Z,22.80
2019-03-30T11:52:50.209Z,23.60
2019-03-30T11:53:50.212Z,23.20
2019-03-30T11:54:50.222Z,23.80
2019-03-30T11:55:50.242Z,23.00
2019-03-30T11:56:50.183Z,25.10
2019-03-30T11:57:50.192Z,24.00
2019-03-30T11:58:50.150Z,24.10
2019-03-30T11:59:50.142Z,24.10
2019-03-30T12:00:50.147Z,23.00
2019-03-30T12:01:50.114Z,24.80
2019-03-30T12:02:50.120Z,23.80
2019-03-30T12:03:50.118Z,24.10
2019-03-30T12:04:50.087Z,23.90
2019-03-30T12:05:50.147Z,24.70
2019-03-30T12:06:51.826Z,23.10
2019-03-30T12:07:50.054Z,23.50
2019-03-30T12:08:50.046Z,23.30
2019-03-30T12:09:50.034Z,23.20
2019-03-30T12:10:50.019Z,22.90
2019-03-30T12:11:50.035Z,22.90
2019-03-30T12:12:50.020Z,23.00
2019-03-30T12:13:49.986Z,21.90
2019-03-30T12:14:50.075Z,21.10
2019-03-30T12:15:49.974Z,22.40
2019-03-30T12:16:49.978Z,20.40
2019-03-30T12:17:50.012Z,19.90
2019-03-30T12:18:49.933Z,19.70
2019-03-30T12:19:49.925Z,19.70
2019-03-30T12:20:50.032Z,20.50
2019-03-30T12:21:49.908Z,20.10
2019-03-30T12:22:49.943Z,22.20
2019-03-30T12:23:49.986Z,20.00
2019-03-30T12:24:49.880Z,20.10
2019-03-30T12:25:49.890Z,20.60
2019-03-30T12:26:49.876Z,20.80
2019-03-30T12:27:49.871Z,21.30
2019-03-30T12:28:49.830Z,22.70
2019-03-30T12:29:49.838Z,22.70
2019-03-30T12:30:49.828Z,21.50
2019-03-30T12:31:49.853Z,22.80
2019-03-30T12:32:49.804Z,21.80
2019-03-30T12:33:49.813Z,22.50
2019-03-30T12:34:49.819Z,21.40
2019-03-30T12:35:49.750Z,22.00
2019-03-30T12:36:49.764Z,21.40
2019-03-30T12:37:49.767Z,21.00
2019-03-30T12:38:49.717Z,22.10
2019-03-30T12:39:49.747Z,21.60
2019-03-30T12:40:49.769Z,20.20
2019-03-30T12:41:49.686Z,20.60
2019-03-30T12:42:49.772Z,20.20
2019-03-30T12:43:49.687Z,20.80
2019-03-30T12:44:49.662Z,20.00
2019-03-30T12:45:49.644Z,20.80
2019-03-30T12:46:49.702Z,20.50
2019-03-30T12:47:49.660Z,20.50
2019-03-30T12:48:49.643Z,20.60
2019-03-30T12:49:49.613Z,20.30
2019-03-30T12:50:49.683Z,20.30
2019-03-30T12:51:49.588Z,19.70
2019-03-30T12:52:49.642Z,20.60